sensor_id;sensor_type;location;lat;lon;timestamp;P1;durP1;ratioP1;P2;durP2;ratioP2
21901;SDS011;11115;46.038;14.612;2022-12-22T00:00:19;11.40;;;5.10;;
21901;SDS011;11115;46.038;14.612;2022-12-22T00:03:11;16.27;;;6.53;;
21901;SDS011;11115;46.038;14.612;2022-12-22T00:06:02;9.80;;;5.53;;
21901;SDS011;11115;46.038;14.612;2022-12-22T00:08:50;15.73;;;6.30;;
21901;SDS011;11115;46.038;14.612;2022-12-22T00:11:51;9.93;;;5.13;;
21901;SDS011;11115;46.038;14.612;2022-12-22T00:14:55;6.77;;;4.87;;
21901;SDS011;11115;46.038;14.612;2022-12-22T00:17:49;21.87;;;5.07;;
21901;SDS011;11115;46.038;14.612;2022-12-22T00:20:36;14.73;;;6.50;;
21901;SDS011;11115;46.038;14.612;2022-12-22T00:23:26;17.27;;;7.53;;
21901;SDS011;11115;46.038;14.612;2022-12-22T00:26:15;12.93;;;5.17;;
21901;SDS011;11115;46.038;14.612;2022-12-22T00:29:12;11.90;;;5.67;;
21901;SDS011;11115;46.038;14.612;2022-12-22T00:32:03;22.20;;;6.83;;
21901;SDS011;11115;46.038;14.612;2022-12-22T00:34:57;12.02;;;6.07;;
21901;SDS011;11115;46.038;14.612;2022-12-22T00:37:52;16.23;;;5.43;;
21901;SDS011;11115;46.038;14.612;2022-12-22T00:40:43;19.73;;;6.57;;
21901;SDS011;11115;46.038;14.612;2022-12-22T00:43:32;10.50;;;5.73;;
21901;SDS011;11115;46.038;14.612;2022-12-22T00:46:20;17.13;;;6.47;;
21901;SDS011;11115;46.038;14.612;2022-12-22T00:49:09;9.47;;;4.90;;
21901;SDS011;11115;46.038;14.612;2022-12-22T00:51:55;11.47;;;5.70;;
21901;SDS011;11115;46.038;14.612;2022-12-22T00:54:48;12.48;;;4.45;;
21901;SDS011;11115;46.038;14.612;2022-12-22T00:57:41;12.60;;;4.43;;
21901;SDS011;11115;46.038;14.612;2022-12-22T01:00:30;11.13;;;5.00;;
21901;SDS011;11115;46.038;14.612;2022-12-22T01:03:16;6.13;;;3.50;;
21901;SDS011;11115;46.038;14.612;2022-12-22T01:06:07;10.63;;;4.93;;
21901;SDS011;11115;46.038;14.612;2022-12-22T01:08:59;11.63;;;4.33;;
21901;SDS011;11115;46.038;14.612;2022-12-22T01:11:50;7.82;;;4.47;;
21901;SDS011;11115;46.038;14.612;2022-12-22T01:14:37;8.87;;;4.83;;
21901;SDS011;11115;46.038;14.612;2022-12-22T01:17:34;10.80;;;4.07;;
21901;SDS011;11115;46.038;14.612;2022-12-22T01:20:44;11.57;;;4.53;;
21901;SDS011;11115;46.038;14.612;2022-12-22T01:23:49;9.57;;;4.07;;
21901;SDS011;11115;46.038;14.612;2022-12-22T01:26:55;14.53;;;4.00;;
21901;SDS011;11115;46.038;14.612;2022-12-22T01:29:59;10.20;;;4.60;;
21901;SDS011;11115;46.038;14.612;2022-12-22T01:33:06;7.90;;;3.70;;
21901;SDS011;11115;46.038;14.612;2022-12-22T01:36:15;10.57;;;5.00;;
21901;SDS011;11115;46.038;14.612;2022-12-22T01:39:20;10.50;;;4.00;;
21901;SDS011;11115;46.038;14.612;2022-12-22T01:42:27;9.00;;;3.73;;
21901;SDS011;11115;46.038;14.612;2022-12-22T01:45:34;13.53;;;4.27;;
21901;SDS011;11115;46.038;14.612;2022-12-22T01:48:43;7.33;;;3.03;;
21901;SDS011;11115;46.038;14.612;2022-12-22T01:51:46;12.03;;;4.23;;
21901;SDS011;11115;46.038;14.612;2022-12-22T01:54:51;12.37;;;4.23;;
21901;SDS011;11115;46.038;14.612;2022-12-22T01:57:56;21.23;;;5.77;;
21901;SDS011;11115;46.038;14.612;2022-12-22T02:01:01;9.03;;;4.93;;
21901;SDS011;11115;46.038;14.612;2022-12-22T02:04:06;8.90;;;4.10;;
21901;SDS011;11115;46.038;14.612;2022-12-22T02:07:17;10.87;;;4.23;;
21901;SDS011;11115;46.038;14.612;2022-12-22T02:14:20;7.53;;;3.83;;
21901;SDS011;11115;46.038;14.612;2022-12-22T02:17:37;14.93;;;5.57;;
21901;SDS011;11115;46.038;14.612;2022-12-22T02:20:59;11.87;;;5.13;;
21901;SDS011;11115;46.038;14.612;2022-12-22T02:24:31;9.57;;;4.43;;
21901;SDS011;11115;46.038;14.612;2022-12-22T02:27:42;10.27;;;4.40;;
21901;SDS011;11115;46.038;14.612;2022-12-22T02:30:54;9.73;;;5.30;;
21901;SDS011;11115;46.038;14.612;2022-12-22T02:33:59;22.13;;;4.77;;
21901;SDS011;11115;46.038;14.612;2022-12-22T02:37:14;7.53;;;3.93;;
21901;SDS011;11115;46.038;14.612;2022-12-22T02:40:31;9.00;;;4.80;;
21901;SDS011;11115;46.038;14.612;2022-12-22T02:47:12;10.40;;;4.10;;
21901;SDS011;11115;46.038;14.612;2022-12-22T02:50:38;16.53;;;4.80;;
21901;SDS011;11115;46.038;14.612;2022-12-22T02:53:52;13.77;;;5.47;;
21901;SDS011;11115;46.038;14.612;2022-12-22T02:57:06;8.00;;;4.97;;
21901;SDS011;11115;46.038;14.612;2022-12-22T03:00:13;14.02;;;4.97;;
21901;SDS011;11115;46.038;14.612;2022-12-22T03:03:18;8.87;;;3.70;;
21901;SDS011;11115;46.038;14.612;2022-12-22T03:06:23;8.50;;;4.20;;
21901;SDS011;11115;46.038;14.612;2022-12-22T03:09:26;8.03;;;3.97;;
21901;SDS011;11115;46.038;14.612;2022-12-22T03:12:33;10.47;;;4.67;;
21901;SDS011;11115;46.038;14.612;2022-12-22T03:15:37;7.50;;;3.80;;
21901;SDS011;11115;46.038;14.612;2022-12-22T03:18:43;6.07;;;3.87;;
21901;SDS011;11115;46.038;14.612;2022-12-22T03:21:47;7.27;;;4.10;;
21901;SDS011;11115;46.038;14.612;2022-12-22T03:24:51;11.73;;;5.33;;
21901;SDS011;11115;46.038;14.612;2022-12-22T03:28:05;9.47;;;4.47;;
21901;SDS011;11115;46.038;14.612;2022-12-22T03:30:57;13.00;;;4.37;;
21901;SDS011;11115;46.038;14.612;2022-12-22T03:33:49;9.87;;;4.63;;
21901;SDS011;11115;46.038;14.612;2022-12-22T03:36:40;22.40;;;5.60;;
21901;SDS011;11115;46.038;14.612;2022-12-22T03:39:29;8.33;;;4.27;;
21901;SDS011;11115;46.038;14.612;2022-12-22T03:42:19;8.53;;;4.10;;
21901;SDS011;11115;46.038;14.612;2022-12-22T03:45:37;12.80;;;5.00;;
21901;SDS011;11115;46.038;14.612;2022-12-22T03:48:42;8.53;;;4.40;;
21901;SDS011;11115;46.038;14.612;2022-12-22T03:51:51;10.00;;;3.73;;
21901;SDS011;11115;46.038;14.612;2022-12-22T03:54:38;9.80;;;3.50;;
21901;SDS011;11115;46.038;14.612;2022-12-22T03:57:27;9.87;;;4.43;;
21901;SDS011;11115;46.038;14.612;2022-12-22T04:00:15;5.60;;;2.60;;
21901;SDS011;11115;46.038;14.612;2022-12-22T04:03:04;7.33;;;3.80;;
21901;SDS011;11115;46.038;14.612;2022-12-22T04:05:59;7.73;;;3.03;;
21901;SDS011;11115;46.038;14.612;2022-12-22T04:08:48;5.50;;;2.77;;
21901;SDS011;11115;46.038;14.612;2022-12-22T04:11:43;6.17;;;4.17;;
21901;SDS011;11115;46.038;14.612;2022-12-22T04:14:47;2.83;;;2.50;;
21901;SDS011;11115;46.038;14.612;2022-12-22T04:17:41;5.07;;;2.60;;
21901;SDS011;11115;46.038;14.612;2022-12-22T04:20:37;6.77;;;3.23;;
21901;SDS011;11115;46.038;14.612;2022-12-22T04:23:24;6.33;;;2.70;;
21901;SDS011;11115;46.038;14.612;2022-12-22T04:26:11;9.00;;;2.93;;
21901;SDS011;11115;46.038;14.612;2022-12-22T04:29:07;5.17;;;2.03;;
21901;SDS011;11115;46.038;14.612;2022-12-22T04:31:56;9.27;;;4.07;;
21901;SDS011;11115;46.038;14.612;2022-12-22T04:34:43;9.17;;;3.30;;
21901;SDS011;11115;46.038;14.612;2022-12-22T04:37:30;6.37;;;3.30;;
21901;SDS011;11115;46.038;14.612;2022-12-22T04:40:21;4.53;;;2.33;;
21901;SDS011;11115;46.038;14.612;2022-12-22T04:43:11;12.37;;;3.53;;
21901;SDS011;11115;46.038;14.612;2022-12-22T04:45:57;10.90;;;2.43;;
21901;SDS011;11115;46.038;14.612;2022-12-22T04:48:52;5.53;;;2.70;;
21901;SDS011;11115;46.038;14.612;2022-12-22T04:51:39;7.50;;;2.67;;
21901;SDS011;11115;46.038;14.612;2022-12-22T04:54:27;13.37;;;2.70;;
21901;SDS011;11115;46.038;14.612;2022-12-22T04:57:15;4.13;;;2.80;;
21901;SDS011;11115;46.038;14.612;2022-12-22T05:00:03;12.13;;;4.07;;
21901;SDS011;11115;46.038;14.612;2022-12-22T05:02:58;12.60;;;3.67;;
21901;SDS011;11115;46.038;14.612;2022-12-22T05:05:47;5.30;;;2.40;;
21901;SDS011;11115;46.038;14.612;2022-12-22T05:08:32;8.90;;;4.43;;
21901;SDS011;11115;46.038;14.612;2022-12-22T05:11:24;4.80;;;2.78;;
21901;SDS011;11115;46.038;14.612;2022-12-22T05:14:10;5.33;;;2.90;;
21901;SDS011;11115;46.038;14.612;2022-12-22T05:16:57;7.67;;;3.03;;
21901;SDS011;11115;46.038;14.612;2022-12-22T05:19:48;6.40;;;2.43;;
21901;SDS011;11115;46.038;14.612;2022-12-22T05:22:34;4.83;;;2.40;;
21901;SDS011;11115;46.038;14.612;2022-12-22T05:25:28;5.40;;;2.27;;
21901;SDS011;11115;46.038;14.612;2022-12-22T05:28:16;4.77;;;1.83;;
21901;SDS011;11115;46.038;14.612;2022-12-22T05:31:06;8.40;;;3.63;;
21901;SDS011;11115;46.038;14.612;2022-12-22T05:33:54;3.70;;;2.43;;
21901;SDS011;11115;46.038;14.612;2022-12-22T05:36:45;7.30;;;2.67;;
21901;SDS011;11115;46.038;14.612;2022-12-22T05:39:35;5.23;;;3.07;;
21901;SDS011;11115;46.038;14.612;2022-12-22T05:42:24;3.33;;;1.93;;
21901;SDS011;11115;46.038;14.612;2022-12-22T05:45:27;7.00;;;3.00;;
21901;SDS011;11115;46.038;14.612;2022-12-22T05:48:16;9.93;;;4.30;;
21901;SDS011;11115;46.038;14.612;2022-12-22T05:51:12;3.47;;;3.10;;
21901;SDS011;11115;46.038;14.612;2022-12-22T05:54:14;7.20;;;3.37;;
21901;SDS011;11115;46.038;14.612;2022-12-22T05:57:03;6.63;;;3.13;;
21901;SDS011;11115;46.038;14.612;2022-12-22T06:00:06;5.03;;;3.07;;
21901;SDS011;11115;46.038;14.612;2022-12-22T06:03:01;5.80;;;3.07;;
21901;SDS011;11115;46.038;14.612;2022-12-22T06:05:54;6.83;;;3.07;;
21901;SDS011;11115;46.038;14.612;2022-12-22T06:08:49;6.67;;;2.40;;
21901;SDS011;11115;46.038;14.612;2022-12-22T06:11:37;4.63;;;3.87;;
21901;SDS011;11115;46.038;14.612;2022-12-22T06:14:24;3.40;;;2.93;;
21901;SDS011;11115;46.038;14.612;2022-12-22T06:17:13;2.97;;;1.97;;
21901;SDS011;11115;46.038;14.612;2022-12-22T06:20:04;4.57;;;3.07;;
21901;SDS011;11115;46.038;14.612;2022-12-22T06:22:51;8.30;;;3.20;;
21901;SDS011;11115;46.038;14.612;2022-12-22T06:25:40;11.40;;;2.90;;
21901;SDS011;11115;46.038;14.612;2022-12-22T06:28:30;8.30;;;3.57;;
21901;SDS011;11115;46.038;14.612;2022-12-22T06:31:20;6.40;;;3.13;;
21901;SDS011;11115;46.038;14.612;2022-12-22T06:34:07;4.90;;;2.90;;
21901;SDS011;11115;46.038;14.612;2022-12-22T06:37:05;9.83;;;3.20;;
21901;SDS011;11115;46.038;14.612;2022-12-22T06:39:54;4.63;;;3.50;;
21901;SDS011;11115;46.038;14.612;2022-12-22T06:42:43;8.10;;;3.87;;
21901;SDS011;11115;46.038;14.612;2022-12-22T06:45:47;8.00;;;3.50;;
21901;SDS011;11115;46.038;14.612;2022-12-22T06:48:37;8.20;;;3.20;;
21901;SDS011;11115;46.038;14.612;2022-12-22T06:51:26;6.33;;;3.37;;
21901;SDS011;11115;46.038;14.612;2022-12-22T06:54:25;2.57;;;1.97;;
21901;SDS011;11115;46.038;14.612;2022-12-22T06:57:13;4.97;;;2.57;;
21901;SDS011;11115;46.038;14.612;2022-12-22T07:00:13;3.33;;;2.50;;
21901;SDS011;11115;46.038;14.612;2022-12-22T07:03:04;2.53;;;1.87;;
21901;SDS011;11115;46.038;14.612;2022-12-22T07:05:54;5.23;;;3.03;;
21901;SDS011;11115;46.038;14.612;2022-12-22T07:08:49;5.00;;;2.70;;
21901;SDS011;11115;46.038;14.612;2022-12-22T07:11:43;5.13;;;3.07;;
21901;SDS011;11115;46.038;14.612;2022-12-22T07:14:44;3.60;;;2.73;;
21901;SDS011;11115;46.038;14.612;2022-12-22T07:17:32;4.33;;;2.63;;
21901;SDS011;11115;46.038;14.612;2022-12-22T07:20:23;4.97;;;3.40;;
21901;SDS011;11115;46.038;14.612;2022-12-22T07:23:12;4.83;;;2.80;;
21901;SDS011;11115;46.038;14.612;2022-12-22T07:25:59;4.77;;;3.10;;
21901;SDS011;11115;46.038;14.612;2022-12-22T07:28:46;14.10;;;4.47;;
21901;SDS011;11115;46.038;14.612;2022-12-22T07:31:35;17.57;;;4.27;;
21901;SDS011;11115;46.038;14.612;2022-12-22T07:34:28;10.83;;;4.23;;
21901;SDS011;11115;46.038;14.612;2022-12-22T07:37:18;12.43;;;4.27;;
21901;SDS011;11115;46.038;14.612;2022-12-22T07:40:07;6.37;;;3.83;;
21901;SDS011;11115;46.038;14.612;2022-12-22T07:42:58;12.37;;;3.00;;
21901;SDS011;11115;46.038;14.612;2022-12-22T07:45:51;23.90;;;6.73;;
21901;SDS011;11115;46.038;14.612;2022-12-22T07:48:52;9.23;;;3.70;;
21901;SDS011;11115;46.038;14.612;2022-12-22T07:52:00;13.13;;;4.73;;
21901;SDS011;11115;46.038;14.612;2022-12-22T07:54:51;8.53;;;3.17;;
21901;SDS011;11115;46.038;14.612;2022-12-22T07:57:39;6.47;;;2.23;;
21901;SDS011;11115;46.038;14.612;2022-12-22T08:00:26;10.47;;;3.10;;
21901;SDS011;11115;46.038;14.612;2022-12-22T08:03:28;8.50;;;3.37;;
21901;SDS011;11115;46.038;14.612;2022-12-22T08:06:16;9.77;;;3.17;;
21901;SDS011;11115;46.038;14.612;2022-12-22T08:09:16;8.20;;;2.63;;
21901;SDS011;11115;46.038;14.612;2022-12-22T08:12:06;5.53;;;2.70;;
21901;SDS011;11115;46.038;14.612;2022-12-22T08:14:56;4.57;;;2.70;;
21901;SDS011;11115;46.038;14.612;2022-12-22T08:17:47;7.53;;;3.13;;
21901;SDS011;11115;46.038;14.612;2022-12-22T08:20:36;4.00;;;2.20;;
21901;SDS011;11115;46.038;14.612;2022-12-22T08:23:27;13.10;;;3.20;;
21901;SDS011;11115;46.038;14.612;2022-12-22T08:26:44;6.73;;;2.90;;
21901;SDS011;11115;46.038;14.612;2022-12-22T08:29:56;9.37;;;4.00;;
21901;SDS011;11115;46.038;14.612;2022-12-22T08:32:45;10.03;;;3.53;;
21901;SDS011;11115;46.038;14.612;2022-12-22T08:35:33;5.17;;;2.93;;
21901;SDS011;11115;46.038;14.612;2022-12-22T08:38:22;4.63;;;2.70;;
21901;SDS011;11115;46.038;14.612;2022-12-22T08:41:23;4.97;;;2.73;;
21901;SDS011;11115;46.038;14.612;2022-12-22T08:44:23;6.63;;;3.30;;
21901;SDS011;11115;46.038;14.612;2022-12-22T08:47:10;7.67;;;2.73;;
21901;SDS011;11115;46.038;14.612;2022-12-22T08:49:59;10.33;;;2.13;;
21901;SDS011;11115;46.038;14.612;2022-12-22T08:52:49;7.97;;;3.03;;
21901;SDS011;11115;46.038;14.612;2022-12-22T08:55:36;14.47;;;3.87;;
21901;SDS011;11115;46.038;14.612;2022-12-22T08:58:23;12.20;;;4.33;;
21901;SDS011;11115;46.038;14.612;2022-12-22T09:01:16;11.60;;;4.20;;
21901;SDS011;11115;46.038;14.612;2022-12-22T09:04:05;9.83;;;4.13;;
21901;SDS011;11115;46.038;14.612;2022-12-22T09:07:03;9.20;;;3.93;;
21901;SDS011;11115;46.038;14.612;2022-12-22T09:09:51;7.60;;;4.67;;
21901;SDS011;11115;46.038;14.612;2022-12-22T09:12:41;9.43;;;3.90;;
21901;SDS011;11115;46.038;14.612;2022-12-22T09:15:32;6.07;;;3.03;;
21901;SDS011;11115;46.038;14.612;2022-12-22T09:18:19;6.53;;;3.73;;
21901;SDS011;11115;46.038;14.612;2022-12-22T09:21:21;9.27;;;2.77;;
21901;SDS011;11115;46.038;14.612;2022-12-22T09:24:16;11.60;;;4.03;;
21901;SDS011;11115;46.038;14.612;2022-12-22T09:27:03;9.30;;;4.40;;
21901;SDS011;11115;46.038;14.612;2022-12-22T09:29:54;5.93;;;3.50;;
21901;SDS011;11115;46.038;14.612;2022-12-22T09:32:39;10.87;;;3.70;;
21901;SDS011;11115;46.038;14.612;2022-12-22T09:35:28;11.27;;;3.43;;
21901;SDS011;11115;46.038;14.612;2022-12-22T09:38:35;13.53;;;4.17;;
21901;SDS011;11115;46.038;14.612;2022-12-22T09:41:45;11.83;;;4.83;;
21901;SDS011;11115;46.038;14.612;2022-12-22T09:44:37;9.27;;;4.20;;
21901;SDS011;11115;46.038;14.612;2022-12-22T09:47:34;10.23;;;3.80;;
21901;SDS011;11115;46.038;14.612;2022-12-22T09:50:25;12.10;;;4.93;;
21901;SDS011;11115;46.038;14.612;2022-12-22T09:53:18;18.40;;;5.50;;
21901;SDS011;11115;46.038;14.612;2022-12-22T09:56:15;9.93;;;3.83;;
21901;SDS011;11115;46.038;14.612;2022-12-22T09:59:13;20.10;;;6.07;;
21901;SDS011;11115;46.038;14.612;2022-12-22T10:02:27;11.13;;;4.70;;
21901;SDS011;11115;46.038;14.612;2022-12-22T10:05:42;8.17;;;4.30;;
21901;SDS011;11115;46.038;14.612;2022-12-22T10:08:34;6.53;;;3.97;;
21901;SDS011;11115;46.038;14.612;2022-12-22T10:11:23;6.30;;;3.13;;
21901;SDS011;11115;46.038;14.612;2022-12-22T10:14:09;12.37;;;5.50;;
21901;SDS011;11115;46.038;14.612;2022-12-22T10:23:19;10.87;;;4.20;;
21901;SDS011;11115;46.038;14.612;2022-12-22T10:26:28;7.23;;;4.70;;
21901;SDS011;11115;46.038;14.612;2022-12-22T10:29:22;9.40;;;3.93;;
21901;SDS011;11115;46.038;14.612;2022-12-22T10:32:13;19.20;;;4.43;;
21901;SDS011;11115;46.038;14.612;2022-12-22T10:35:08;12.80;;;5.13;;
21901;SDS011;11115;46.038;14.612;2022-12-22T10:38:15;15.37;;;6.00;;
21901;SDS011;11115;46.038;14.612;2022-12-22T10:41:21;6.63;;;3.57;;
21901;SDS011;11115;46.038;14.612;2022-12-22T10:44:18;9.23;;;4.13;;
21901;SDS011;11115;46.038;14.612;2022-12-22T10:47:18;12.97;;;5.37;;
21901;SDS011;11115;46.038;14.612;2022-12-22T10:50:09;11.30;;;4.20;;
21901;SDS011;11115;46.038;14.612;2022-12-22T10:52:58;8.93;;;4.90;;
21901;SDS011;11115;46.038;14.612;2022-12-22T10:55:49;7.87;;;3.50;;
21901;SDS011;11115;46.038;14.612;2022-12-22T11:01:51;6.70;;;3.80;;
21901;SDS011;11115;46.038;14.612;2022-12-22T11:04:42;9.53;;;3.07;;
21901;SDS011;11115;46.038;14.612;2022-12-22T11:07:33;9.03;;;3.97;;
21901;SDS011;11115;46.038;14.612;2022-12-22T11:17:16;9.17;;;4.43;;
21901;SDS011;11115;46.038;14.612;2022-12-22T11:24:04;8.67;;;3.87;;
21901;SDS011;11115;46.038;14.612;2022-12-22T11:37:51;12.20;;;4.57;;
21901;SDS011;11115;46.038;14.612;2022-12-22T11:40:53;13.70;;;3.83;;
21901;SDS011;11115;46.038;14.612;2022-12-22T11:51:28;13.83;;;3.97;;
21901;SDS011;11115;46.038;14.612;2022-12-22T12:05:27;8.57;;;4.70;;
21901;SDS011;11115;46.038;14.612;2022-12-22T12:21:53;14.77;;;6.60;;
21901;SDS011;11115;46.038;14.612;2022-12-22T12:25:00;7.90;;;5.07;;
21901;SDS011;11115;46.038;14.612;2022-12-22T12:31:11;8.23;;;4.40;;
21901;SDS011;11115;46.038;14.612;2022-12-22T12:34:02;9.67;;;5.10;;
21901;SDS011;11115;46.038;14.612;2022-12-22T12:43:28;7.40;;;3.97;;
21901;SDS011;11115;46.038;14.612;2022-12-22T13:01:52;2.63;;;1.97;;
21901;SDS011;11115;46.038;14.612;2022-12-22T13:08:11;4.77;;;2.73;;
21901;SDS011;11115;46.038;14.612;2022-12-22T13:14:07;4.53;;;1.70;;
21901;SDS011;11115;46.038;14.612;2022-12-22T13:17:12;5.87;;;2.67;;
21901;SDS011;11115;46.038;14.612;2022-12-22T13:20:35;5.53;;;2.00;;
21901;SDS011;11115;46.038;14.612;2022-12-22T13:23:23;4.00;;;2.23;;
21901;SDS011;11115;46.038;14.612;2022-12-22T13:26:15;4.65;;;2.95;;
21901;SDS011;11115;46.038;14.612;2022-12-22T13:29:46;5.50;;;1.90;;
21901;SDS011;11115;46.038;14.612;2022-12-22T13:32:34;2.47;;;1.93;;
21901;SDS011;11115;46.038;14.612;2022-12-22T13:35:31;4.00;;;1.50;;
21901;SDS011;11115;46.038;14.612;2022-12-22T13:38:35;1.73;;;1.23;;
21901;SDS011;11115;46.038;14.612;2022-12-22T13:41:22;3.60;;;1.23;;
21901;SDS011;11115;46.038;14.612;2022-12-22T13:44:17;1.07;;;0.97;;
21901;SDS011;11115;46.038;14.612;2022-12-22T13:47:12;2.23;;;0.87;;
21901;SDS011;11115;46.038;14.612;2022-12-22T13:50:02;1.13;;;1.03;;
21901;SDS011;11115;46.038;14.612;2022-12-22T13:52:51;0.70;;;0.70;;
21901;SDS011;11115;46.038;14.612;2022-12-22T13:56:00;2.37;;;1.30;;
21901;SDS011;11115;46.038;14.612;2022-12-22T13:58:50;5.43;;;1.23;;
21901;SDS011;11115;46.038;14.612;2022-12-22T14:08:04;4.73;;;2.47;;
21901;SDS011;11115;46.038;14.612;2022-12-22T14:10:59;7.97;;;2.60;;
21901;SDS011;11115;46.038;14.612;2022-12-22T14:13:45;6.37;;;1.33;;
21901;SDS011;11115;46.038;14.612;2022-12-22T14:16:51;1.87;;;1.03;;
21901;SDS011;11115;46.038;14.612;2022-12-22T14:19:48;2.63;;;1.73;;
21901;SDS011;11115;46.038;14.612;2022-12-22T14:22:42;3.03;;;1.57;;
21901;SDS011;11115;46.038;14.612;2022-12-22T14:25:40;11.57;;;3.40;;
21901;SDS011;11115;46.038;14.612;2022-12-22T14:28:39;9.00;;;2.37;;
21901;SDS011;11115;46.038;14.612;2022-12-22T14:31:34;4.47;;;2.37;;
21901;SDS011;11115;46.038;14.612;2022-12-22T14:34:45;3.80;;;2.23;;
21901;SDS011;11115;46.038;14.612;2022-12-22T14:37:42;3.27;;;1.73;;
21901;SDS011;11115;46.038;14.612;2022-12-22T14:40:31;3.77;;;2.17;;
21901;SDS011;11115;46.038;14.612;2022-12-22T14:43:24;0.60;;;0.60;;
21901;SDS011;11115;46.038;14.612;2022-12-22T14:46:23;6.70;;;2.60;;
21901;SDS011;11115;46.038;14.612;2022-12-22T14:49:15;4.50;;;2.60;;
21901;SDS011;11115;46.038;14.612;2022-12-22T14:52:13;2.37;;;1.10;;
21901;SDS011;11115;46.038;14.612;2022-12-22T14:55:31;2.92;;;1.35;;
21901;SDS011;11115;46.038;14.612;2022-12-22T14:58:21;1.97;;;0.83;;
21901;SDS011;11115;46.038;14.612;2022-12-22T15:01:24;2.00;;;1.27;;
21901;SDS011;11115;46.038;14.612;2022-12-22T15:04:18;1.07;;;0.93;;
21901;SDS011;11115;46.038;14.612;2022-12-22T15:07:06;4.97;;;0.80;;
21901;SDS011;11115;46.038;14.612;2022-12-22T15:10:05;1.80;;;1.00;;
21901;SDS011;11115;46.038;14.612;2022-12-22T15:13:04;1.30;;;1.07;;
21901;SDS011;11115;46.038;14.612;2022-12-22T15:15:56;1.07;;;0.97;;
21901;SDS011;11115;46.038;14.612;2022-12-22T15:18:45;1.43;;;0.93;;
21901;SDS011;11115;46.038;14.612;2022-12-22T15:21:38;0.70;;;0.67;;
21901;SDS011;11115;46.038;14.612;2022-12-22T15:24:32;0.60;;;0.40;;
21901;SDS011;11115;46.038;14.612;2022-12-22T15:27:21;4.00;;;1.37;;
21901;SDS011;11115;46.038;14.612;2022-12-22T15:30:11;8.20;;;2.37;;
21901;SDS011;11115;46.038;14.612;2022-12-22T15:33:01;3.75;;;1.42;;
21901;SDS011;11115;46.038;14.612;2022-12-22T15:35:49;4.17;;;1.83;;
21901;SDS011;11115;46.038;14.612;2022-12-22T15:38:37;8.13;;;2.80;;
21901;SDS011;11115;46.038;14.612;2022-12-22T15:41:30;3.22;;;1.35;;
21901;SDS011;11115;46.038;14.612;2022-12-22T15:44:19;5.07;;;1.50;;
21901;SDS011;11115;46.038;14.612;2022-12-22T15:47:11;9.32;;;1.98;;
21901;SDS011;11115;46.038;14.612;2022-12-22T15:50:00;4.70;;;1.70;;
21901;SDS011;11115;46.038;14.612;2022-12-22T15:52:50;2.83;;;1.70;;
21901;SDS011;11115;46.038;14.612;2022-12-22T15:55:49;5.37;;;1.83;;
21901;SDS011;11115;46.038;14.612;2022-12-22T15:58:42;13.30;;;2.67;;
21901;SDS011;11115;46.038;14.612;2022-12-22T16:01:28;8.43;;;1.73;;
21901;SDS011;11115;46.038;14.612;2022-12-22T16:04:25;12.50;;;3.10;;
21901;SDS011;11115;46.038;14.612;2022-12-22T16:07:11;1.70;;;1.60;;
21901;SDS011;11115;46.038;14.612;2022-12-22T16:09:57;5.20;;;2.27;;
21901;SDS011;11115;46.038;14.612;2022-12-22T16:12:54;4.17;;;1.90;;
21901;SDS011;11115;46.038;14.612;2022-12-22T16:15:49;11.13;;;2.00;;
21901;SDS011;11115;46.038;14.612;2022-12-22T16:18:38;6.77;;;2.33;;
21901;SDS011;11115;46.038;14.612;2022-12-22T16:21:39;7.37;;;2.43;;
21901;SDS011;11115;46.038;14.612;2022-12-22T16:24:33;4.63;;;2.50;;
21901;SDS011;11115;46.038;14.612;2022-12-22T16:27:24;4.90;;;2.30;;
21901;SDS011;11115;46.038;14.612;2022-12-22T16:30:19;4.57;;;1.60;;
21901;SDS011;11115;46.038;14.612;2022-12-22T16:33:14;3.77;;;2.23;;
21901;SDS011;11115;46.038;14.612;2022-12-22T16:36:04;2.63;;;1.60;;
21901;SDS011;11115;46.038;14.612;2022-12-22T16:38:56;5.37;;;1.47;;
21901;SDS011;11115;46.038;14.612;2022-12-22T16:41:43;2.83;;;1.77;;
21901;SDS011;11115;46.038;14.612;2022-12-22T16:44:40;1.20;;;1.10;;
21901;SDS011;11115;46.038;14.612;2022-12-22T16:47:33;1.53;;;1.13;;
21901;SDS011;11115;46.038;14.612;2022-12-22T16:50:22;2.17;;;1.50;;
21901;SDS011;11115;46.038;14.612;2022-12-22T16:53:16;4.90;;;1.70;;
21901;SDS011;11115;46.038;14.612;2022-12-22T16:56:07;7.93;;;2.27;;
21901;SDS011;11115;46.038;14.612;2022-12-22T16:59:05;10.57;;;2.70;;
21901;SDS011;11115;46.038;14.612;2022-12-22T17:01:54;5.43;;;2.10;;
21901;SDS011;11115;46.038;14.612;2022-12-22T17:04:45;2.87;;;1.70;;
21901;SDS011;11115;46.038;14.612;2022-12-22T17:07:31;7.10;;;2.27;;
21901;SDS011;11115;46.038;14.612;2022-12-22T17:10:21;8.30;;;2.67;;
21901;SDS011;11115;46.038;14.612;2022-12-22T17:13:09;5.03;;;1.73;;
21901;SDS011;11115;46.038;14.612;2022-12-22T17:15:58;6.60;;;3.23;;
21901;SDS011;11115;46.038;14.612;2022-12-22T17:18:47;9.73;;;3.73;;
21901;SDS011;11115;46.038;14.612;2022-12-22T17:21:48;6.30;;;3.57;;
21901;SDS011;11115;46.038;14.612;2022-12-22T17:24:46;8.33;;;3.10;;
21901;SDS011;11115;46.038;14.612;2022-12-22T17:27:36;7.80;;;4.43;;
21901;SDS011;11115;46.038;14.612;2022-12-22T17:30:26;15.40;;;5.60;;
21901;SDS011;11115;46.038;14.612;2022-12-22T17:33:28;17.57;;;5.93;;
21901;SDS011;11115;46.038;14.612;2022-12-22T17:39:24;11.03;;;5.90;;
21901;SDS011;11115;46.038;14.612;2022-12-22T17:42:17;9.17;;;4.53;;
21901;SDS011;11115;46.038;14.612;2022-12-22T17:45:13;2.63;;;1.83;;
21901;SDS011;11115;46.038;14.612;2022-12-22T17:48:20;2.53;;;1.57;;
21901;SDS011;11115;46.038;14.612;2022-12-22T17:51:14;5.87;;;2.87;;
21901;SDS011;11115;46.038;14.612;2022-12-22T17:54:03;3.03;;;2.53;;
21901;SDS011;11115;46.038;14.612;2022-12-22T17:56:58;5.07;;;2.70;;
21901;SDS011;11115;46.038;14.612;2022-12-22T17:59:55;6.10;;;1.93;;
21901;SDS011;11115;46.038;14.612;2022-12-22T18:02:46;3.40;;;1.83;;
21901;SDS011;11115;46.038;14.612;2022-12-22T18:05:38;3.53;;;1.50;;
21901;SDS011;11115;46.038;14.612;2022-12-22T18:08:26;2.10;;;1.63;;
21901;SDS011;11115;46.038;14.612;2022-12-22T18:11:16;6.63;;;2.73;;
21901;SDS011;11115;46.038;14.612;2022-12-22T18:14:07;1.90;;;1.73;;
21901;SDS011;11115;46.038;14.612;2022-12-22T18:16:55;6.23;;;3.20;;
21901;SDS011;11115;46.038;14.612;2022-12-22T18:19:49;2.17;;;1.50;;
21901;SDS011;11115;46.038;14.612;2022-12-22T18:22:43;3.97;;;1.87;;
21901;SDS011;11115;46.038;14.612;2022-12-22T18:25:31;4.60;;;2.47;;
21901;SDS011;11115;46.038;14.612;2022-12-22T18:28:20;8.57;;;3.87;;
21901;SDS011;11115;46.038;14.612;2022-12-22T18:31:06;7.00;;;3.13;;
21901;SDS011;11115;46.038;14.612;2022-12-22T18:33:56;4.67;;;2.07;;
21901;SDS011;11115;46.038;14.612;2022-12-22T18:36:44;9.10;;;3.63;;
21901;SDS011;11115;46.038;14.612;2022-12-22T18:39:32;4.03;;;2.40;;
21901;SDS011;11115;46.038;14.612;2022-12-22T18:42:22;4.33;;;2.13;;
21901;SDS011;11115;46.038;14.612;2022-12-22T18:45:14;2.90;;;1.50;;
21901;SDS011;11115;46.038;14.612;2022-12-22T18:48:05;3.33;;;1.53;;
21901;SDS011;11115;46.038;14.612;2022-12-22T18:50:59;4.17;;;1.90;;
21901;SDS011;11115;46.038;14.612;2022-12-22T18:53:54;2.77;;;1.50;;
21901;SDS011;11115;46.038;14.612;2022-12-22T18:56:43;1.80;;;1.27;;
21901;SDS011;11115;46.038;14.612;2022-12-22T18:59:33;4.50;;;2.07;;
21901;SDS011;11115;46.038;14.612;2022-12-22T19:02:27;3.37;;;2.63;;
21901;SDS011;11115;46.038;14.612;2022-12-22T19:05:31;6.53;;;3.03;;